sensor_id;sensor_type;location;lat;lon;timestamp;P1;durP1;ratioP1;P2;durP2;ratioP2
36931;SDS011;22847;42.654;23.370;2022-11-18T00:01:23;26.85;;;14.02;;
36931;SDS011;22847;42.654;23.370;2022-11-18T00:03:49;24.55;;;13.45;;
36931;SDS011;22847;42.654;23.370;2022-11-18T00:06:20;23.65;;;13.27;;
36931;SDS011;22847;42.654;23.370;2022-11-18T00:08:47;27.85;;;13.90;;
36931;SDS011;22847;42.654;23.370;2022-11-18T00:11:14;21.75;;;13.63;;
36931;SDS011;22847;42.654;23.370;2022-11-18T00:14:00;25.65;;;13.52;;
36931;SDS011;22847;42.654;23.370;2022-11-18T00:16:47;30.10;;;14.27;;
36931;SDS011;22847;42.654;23.370;2022-11-18T00:19:13;21.70;;;13.77;;
36931;SDS011;22847;42.654;23.370;2022-11-18T00:21:39;24.80;;;14.90;;
36931;SDS011;22847;42.654;23.370;2022-11-18T00:24:04;31.15;;;13.95;;
36931;SDS011;22847;42.654;23.370;2022-11-18T00:26:30;27.25;;;14.82;;
36931;SDS011;22847;42.654;23.370;2022-11-18T00:28:55;24.00;;;13.48;;
36931;SDS011;22847;42.654;23.370;2022-11-18T00:31:21;25.10;;;12.93;;
36931;SDS011;22847;42.654;23.370;2022-11-18T00:33:46;18.98;;;12.18;;
36931;SDS011;22847;42.654;23.370;2022-11-18T00:36:11;30.98;;;14.05;;
36931;SDS011;22847;42.654;23.370;2022-11-18T00:38:37;20.30;;;12.02;;
36931;SDS011;22847;42.654;23.370;2022-11-18T00:41:04;24.17;;;12.90;;
36931;SDS011;22847;42.654;23.370;2022-11-18T00:43:31;24.55;;;14.45;;
36931;SDS011;22847;42.654;23.370;2022-11-18T00:45:58;25.15;;;12.77;;
36931;SDS011;22847;42.654;23.370;2022-11-18T00:48:23;26.15;;;13.25;;
36931;SDS011;22847;42.654;23.370;2022-11-18T00:50:53;27.33;;;14.25;;
36931;SDS011;22847;42.654;23.370;2022-11-18T00:53:20;23.35;;;11.82;;
36931;SDS011;22847;42.654;23.370;2022-11-18T00:55:47;20.10;;;12.32;;
36931;SDS011;22847;42.654;23.370;2022-11-18T00:58:14;23.20;;;13.02;;
36931;SDS011;22847;42.654;23.370;2022-11-18T01:00:41;28.08;;;12.75;;
36931;SDS011;22847;42.654;23.370;2022-11-18T01:03:11;27.58;;;13.55;;
36931;SDS011;22847;42.654;23.370;2022-11-18T01:05:37;19.42;;;11.68;;
36931;SDS011;22847;42.654;23.370;2022-11-18T01:08:04;18.85;;;12.18;;
36931;SDS011;22847;42.654;23.370;2022-11-18T01:10:30;29.48;;;14.20;;
36931;SDS011;22847;42.654;23.370;2022-11-18T01:12:56;23.65;;;12.80;;
36931;SDS011;22847;42.654;23.370;2022-11-18T01:15:41;16.88;;;11.07;;
36931;SDS011;22847;42.654;23.370;2022-11-18T01:18:07;21.10;;;11.95;;
36931;SDS011;22847;42.654;23.370;2022-11-18T01:20:33;20.52;;;10.60;;
36931;SDS011;22847;42.654;23.370;2022-11-18T01:22:59;20.58;;;11.43;;
36931;SDS011;22847;42.654;23.370;2022-11-18T01:25:25;24.05;;;12.20;;
36931;SDS011;22847;42.654;23.370;2022-11-18T01:27:51;21.80;;;12.45;;
36931;SDS011;22847;42.654;23.370;2022-11-18T01:30:17;21.80;;;12.73;;
36931;SDS011;22847;42.654;23.370;2022-11-18T01:32:42;21.83;;;13.27;;
36931;SDS011;22847;42.654;23.370;2022-11-18T01:35:08;24.45;;;13.40;;
36931;SDS011;22847;42.654;23.370;2022-11-18T01:37:35;22.25;;;13.10;;
36931;SDS011;22847;42.654;23.370;2022-11-18T01:40:00;23.48;;;12.13;;
36931;SDS011;22847;42.654;23.370;2022-11-18T01:42:26;23.42;;;12.80;;
36931;SDS011;22847;42.654;23.370;2022-11-18T01:47:43;20.55;;;11.55;;
36931;SDS011;22847;42.654;23.370;2022-11-18T01:50:12;16.77;;;11.48;;
36931;SDS011;22847;42.654;23.370;2022-11-18T01:52:39;24.55;;;12.82;;
36931;SDS011;22847;42.654;23.370;2022-11-18T01:55:13;22.35;;;12.80;;
36931;SDS011;22847;42.654;23.370;2022-11-18T01:57:45;29.30;;;14.95;;
36931;SDS011;22847;42.654;23.370;2022-11-18T02:00:13;32.35;;;15.88;;
36931;SDS011;22847;42.654;23.370;2022-11-18T02:02:39;25.52;;;14.70;;
36931;SDS011;22847;42.654;23.370;2022-11-18T02:05:07;26.55;;;14.63;;
36931;SDS011;22847;42.654;23.370;2022-11-18T02:07:35;29.77;;;15.40;;
36931;SDS011;22847;42.654;23.370;2022-11-18T02:10:04;36.25;;;17.85;;
36931;SDS011;22847;42.654;23.370;2022-11-18T02:12:30;29.95;;;16.70;;
36931;SDS011;22847;42.654;23.370;2022-11-18T02:14:57;40.95;;;18.90;;
36931;SDS011;22847;42.654;23.370;2022-11-18T02:28:30;47.43;;;21.53;;
36931;SDS011;22847;42.654;23.370;2022-11-18T02:31:16;41.42;;;20.60;;
36931;SDS011;22847;42.654;23.370;2022-11-18T02:40:11;49.95;;;23.10;;
36931;SDS011;22847;42.654;23.370;2022-11-18T02:42:38;87.55;;;25.35;;
36931;SDS011;22847;42.654;23.370;2022-11-18T02:45:07;67.63;;;25.50;;
36931;SDS011;22847;42.654;23.370;2022-11-18T02:47:39;57.78;;;26.48;;
36931;SDS011;22847;42.654;23.370;2022-11-18T02:50:08;59.15;;;26.73;;
36931;SDS011;22847;42.654;23.370;2022-11-18T02:52:38;54.78;;;23.73;;
36931;SDS011;22847;42.654;23.370;2022-11-18T02:55:06;55.92;;;24.75;;
36931;SDS011;22847;42.654;23.370;2022-11-18T02:57:35;54.70;;;23.80;;
36931;SDS011;22847;42.654;23.370;2022-11-18T03:00:02;54.72;;;25.13;;
36931;SDS011;22847;42.654;23.370;2022-11-18T03:02:38;44.85;;;23.08;;
36931;SDS011;22847;42.654;23.370;2022-11-18T03:05:04;50.47;;;22.27;;
36931;SDS011;22847;42.654;23.370;2022-11-18T03:07:36;40.97;;;21.05;;
36931;SDS011;22847;42.654;23.370;2022-11-18T03:10:05;56.13;;;17.63;;
36931;SDS011;22847;42.654;23.370;2022-11-18T03:12:42;64.22;;;17.20;;
36931;SDS011;22847;42.654;23.370;2022-11-18T03:15:31;40.28;;;19.00;;
36931;SDS011;22847;42.654;23.370;2022-11-18T03:21:08;38.53;;;20.13;;
36931;SDS011;22847;42.654;23.370;2022-11-18T03:23:42;41.67;;;19.90;;
36931;SDS011;22847;42.654;23.370;2022-11-18T03:26:24;40.70;;;21.05;;
36931;SDS011;22847;42.654;23.370;2022-11-18T03:32:04;43.03;;;22.13;;
36931;SDS011;22847;42.654;23.370;2022-11-18T03:34:28;36.58;;;18.80;;
36931;SDS011;22847;42.654;23.370;2022-11-18T03:36:56;37.60;;;19.45;;
36931;SDS011;22847;42.654;23.370;2022-11-18T03:39:25;37.20;;;18.92;;
36931;SDS011;22847;42.654;23.370;2022-11-18T03:44:56;36.28;;;19.95;;
36931;SDS011;22847;42.654;23.370;2022-11-18T03:47:29;38.90;;;18.83;;
36931;SDS011;22847;42.654;23.370;2022-11-18T03:50:21;35.75;;;17.02;;
36931;SDS011;22847;42.654;23.370;2022-11-18T03:52:50;30.35;;;16.58;;
36931;SDS011;22847;42.654;23.370;2022-11-18T03:55:19;35.83;;;17.92;;
36931;SDS011;22847;42.654;23.370;2022-11-18T04:00:40;29.05;;;15.00;;
36931;SDS011;22847;42.654;23.370;2022-11-18T04:03:09;34.53;;;16.63;;
36931;SDS011;22847;42.654;23.370;2022-11-18T04:05:36;30.42;;;16.13;;
36931;SDS011;22847;42.654;23.370;2022-11-18T04:08:05;36.83;;;15.20;;
36931;SDS011;22847;42.654;23.370;2022-11-18T04:11:18;45.13;;;19.42;;
36931;SDS011;22847;42.654;23.370;2022-11-18T04:13:30;157.30;;;25.88;;
36931;SDS011;22847;42.654;23.370;2022-11-18T04:15:59;56.45;;;25.50;;
36931;SDS011;22847;42.654;23.370;2022-11-18T04:18:24;52.25;;;19.83;;
36931;SDS011;22847;42.654;23.370;2022-11-18T04:20:51;111.03;;;23.55;;
36931;SDS011;22847;42.654;23.370;2022-11-18T04:23:16;96.75;;;24.70;;
36931;SDS011;22847;42.654;23.370;2022-11-18T04:25:42;200.13;;;27.40;;
36931;SDS011;22847;42.654;23.370;2022-11-18T04:28:07;113.57;;;25.48;;
36931;SDS011;22847;42.654;23.370;2022-11-18T04:30:33;138.10;;;26.95;;
36931;SDS011;22847;42.654;23.370;2022-11-18T04:32:58;351.45;;;29.27;;
36931;SDS011;22847;42.654;23.370;2022-11-18T04:35:24;283.85;;;27.73;;
36931;SDS011;22847;42.654;23.370;2022-11-18T04:37:49;67.70;;;25.38;;
36931;SDS011;22847;42.654;23.370;2022-11-18T04:40:15;281.13;;;29.27;;
36931;SDS011;22847;42.654;23.370;2022-11-18T04:42:40;58.53;;;23.17;;
36931;SDS011;22847;42.654;23.370;2022-11-18T04:45:06;149.93;;;24.48;;
36931;SDS011;22847;42.654;23.370;2022-11-18T04:47:32;196.63;;;26.20;;
36931;SDS011;22847;42.654;23.370;2022-11-18T04:49:57;163.48;;;26.55;;
36931;SDS011;22847;42.654;23.370;2022-11-18T04:52:23;174.38;;;25.10;;
36931;SDS011;22847;42.654;23.370;2022-11-18T04:54:48;169.30;;;25.40;;
36931;SDS011;22847;42.654;23.370;2022-11-18T04:57:14;62.50;;;24.58;;
36931;SDS011;22847;42.654;23.370;2022-11-18T04:59:39;53.30;;;25.20;;
36931;SDS011;22847;42.654;23.370;2022-11-18T05:02:05;65.00;;;23.52;;
36931;SDS011;22847;42.654;23.370;2022-11-18T05:04:31;56.83;;;23.73;;
36931;SDS011;22847;42.654;23.370;2022-11-18T05:06:58;85.20;;;23.88;;
36931;SDS011;22847;42.654;23.370;2022-11-18T05:09:25;81.60;;;24.23;;
36931;SDS011;22847;42.654;23.370;2022-11-18T05:11:51;101.78;;;25.75;;
36931;SDS011;22847;42.654;23.370;2022-11-18T05:14:35;96.78;;;24.02;;
36931;SDS011;22847;42.654;23.370;2022-11-18T05:17:01;50.70;;;23.10;;
36931;SDS011;22847;42.654;23.370;2022-11-18T05:19:28;120.78;;;24.40;;
36931;SDS011;22847;42.654;23.370;2022-11-18T05:21:54;63.72;;;27.23;;
36931;SDS011;22847;42.654;23.370;2022-11-18T05:24:20;56.08;;;25.67;;
36931;SDS011;22847;42.654;23.370;2022-11-18T05:26:48;122.63;;;23.83;;
36931;SDS011;22847;42.654;23.370;2022-11-18T05:29:14;107.18;;;23.92;;
36931;SDS011;22847;42.654;23.370;2022-11-18T05:31:41;76.93;;;22.88;;
36931;SDS011;22847;42.654;23.370;2022-11-18T05:34:07;83.75;;;28.77;;
36931;SDS011;22847;42.654;23.370;2022-11-18T05:36:32;72.25;;;23.33;;
36931;SDS011;22847;42.654;23.370;2022-11-18T05:38:58;56.80;;;22.27;;
36931;SDS011;22847;42.654;23.370;2022-11-18T05:41:23;39.22;;;20.58;;
36931;SDS011;22847;42.654;23.370;2022-11-18T05:44:07;47.20;;;20.15;;
36931;SDS011;22847;42.654;23.370;2022-11-18T05:46:33;55.90;;;19.20;;
36931;SDS011;22847;42.654;23.370;2022-11-18T05:48:58;45.53;;;19.60;;
36931;SDS011;22847;42.654;23.370;2022-11-18T05:51:24;44.65;;;21.02;;
36931;SDS011;22847;42.654;23.370;2022-11-18T05:53:49;42.03;;;21.23;;
36931;SDS011;22847;42.654;23.370;2022-11-18T05:56:29;41.20;;;20.30;;
36931;SDS011;22847;42.654;23.370;2022-11-18T05:58:59;140.77;;;20.48;;
36931;SDS011;22847;42.654;23.370;2022-11-18T06:01:26;44.70;;;20.67;;
36931;SDS011;22847;42.654;23.370;2022-11-18T06:04:17;40.20;;;20.15;;
36931;SDS011;22847;42.654;23.370;2022-11-18T06:06:46;50.72;;;21.55;;
36931;SDS011;22847;42.654;23.370;2022-11-18T06:09:15;93.35;;;20.75;;
36931;SDS011;22847;42.654;23.370;2022-11-18T06:11:44;42.45;;;20.45;;
36931;SDS011;22847;42.654;23.370;2022-11-18T06:14:14;43.95;;;21.25;;
36931;SDS011;22847;42.654;23.370;2022-11-18T06:16:45;48.58;;;19.98;;
36931;SDS011;22847;42.654;23.370;2022-11-18T06:19:13;44.15;;;21.75;;
36931;SDS011;22847;42.654;23.370;2022-11-18T06:21:40;282.42;;;24.50;;
36931;SDS011;22847;42.654;23.370;2022-11-18T06:24:06;69.85;;;23.85;;
36931;SDS011;22847;42.654;23.370;2022-11-18T06:26:33;105.68;;;22.90;;
36931;SDS011;22847;42.654;23.370;2022-11-18T06:29:00;284.63;;;26.77;;
36931;SDS011;22847;42.654;23.370;2022-11-18T06:31:26;125.50;;;24.30;;
36931;SDS011;22847;42.654;23.370;2022-11-18T06:33:51;60.38;;;23.52;;
36931;SDS011;22847;42.654;23.370;2022-11-18T06:36:17;166.32;;;26.33;;
36931;SDS011;22847;42.654;23.370;2022-11-18T06:38:42;118.07;;;23.27;;
36931;SDS011;22847;42.654;23.370;2022-11-18T06:41:07;66.47;;;25.05;;
36931;SDS011;22847;42.654;23.370;2022-11-18T06:43:33;106.07;;;23.05;;
36931;SDS011;22847;42.654;23.370;2022-11-18T06:46:07;59.28;;;22.92;;
36931;SDS011;22847;42.654;23.370;2022-11-18T06:48:53;91.45;;;22.33;;
36931;SDS011;22847;42.654;23.370;2022-11-18T06:51:18;127.07;;;22.40;;
36931;SDS011;22847;42.654;23.370;2022-11-18T06:53:44;116.65;;;22.95;;
36931;SDS011;22847;42.654;23.370;2022-11-18T06:56:11;189.70;;;28.70;;
36931;SDS011;22847;42.654;23.370;2022-11-18T06:58:38;65.70;;;23.70;;
36931;SDS011;22847;42.654;23.370;2022-11-18T07:01:11;92.88;;;22.65;;
36931;SDS011;22847;42.654;23.370;2022-11-18T07:03:42;137.70;;;23.23;;
36931;SDS011;22847;42.654;23.370;2022-11-18T07:06:08;62.42;;;23.17;;
36931;SDS011;22847;42.654;23.370;2022-11-18T07:08:35;85.05;;;25.10;;
36931;SDS011;22847;42.654;23.370;2022-11-18T07:11:02;185.20;;;24.05;;
36931;SDS011;22847;42.654;23.370;2022-11-18T07:16:21;70.32;;;23.50;;
36931;SDS011;22847;42.654;23.370;2022-11-18T07:18:50;89.75;;;22.90;;
36931;SDS011;22847;42.654;23.370;2022-11-18T07:21:21;107.80;;;21.73;;
36931;SDS011;22847;42.654;23.370;2022-11-18T07:23:49;53.95;;;22.45;;
36931;SDS011;22847;42.654;23.370;2022-11-18T07:26:14;163.30;;;22.52;;
36931;SDS011;22847;42.654;23.370;2022-11-18T07:28:41;138.80;;;22.45;;
36931;SDS011;22847;42.654;23.370;2022-11-18T07:31:07;77.22;;;21.25;;
36931;SDS011;22847;42.654;23.370;2022-11-18T07:33:38;64.60;;;21.05;;
36931;SDS011;22847;42.654;23.370;2022-11-18T07:36:08;60.95;;;22.35;;
36931;SDS011;22847;42.654;23.370;2022-11-18T07:38:39;128.20;;;22.65;;
36931;SDS011;22847;42.654;23.370;2022-11-18T07:41:06;84.57;;;21.95;;
36931;SDS011;22847;42.654;23.370;2022-11-18T07:43:34;97.70;;;22.08;;
36931;SDS011;22847;42.654;23.370;2022-11-18T07:46:19;108.85;;;22.80;;
36931;SDS011;22847;42.654;23.370;2022-11-18T07:48:49;79.55;;;22.05;;
36931;SDS011;22847;42.654;23.370;2022-11-18T07:51:16;75.13;;;21.98;;
36931;SDS011;22847;42.654;23.370;2022-11-18T07:53:43;94.70;;;20.30;;
36931;SDS011;22847;42.654;23.370;2022-11-18T07:56:09;62.45;;;23.75;;
36931;SDS011;22847;42.654;23.370;2022-11-18T07:58:35;93.35;;;24.60;;
36931;SDS011;22847;42.654;23.370;2022-11-18T08:01:08;64.18;;;23.13;;
36931;SDS011;22847;42.654;23.370;2022-11-18T08:03:35;92.50;;;24.70;;
36931;SDS011;22847;42.654;23.370;2022-11-18T08:06:02;71.53;;;24.33;;
36931;SDS011;22847;42.654;23.370;2022-11-18T08:08:28;55.83;;;24.05;;
36931;SDS011;22847;42.654;23.370;2022-11-18T08:10:54;58.15;;;22.10;;
36931;SDS011;22847;42.654;23.370;2022-11-18T08:13:21;52.45;;;21.25;;
36931;SDS011;22847;42.654;23.370;2022-11-18T08:15:46;57.10;;;23.27;;
36931;SDS011;22847;42.654;23.370;2022-11-18T08:18:12;68.97;;;21.90;;
36931;SDS011;22847;42.654;23.370;2022-11-18T08:20:37;104.13;;;23.30;;
36931;SDS011;22847;42.654;23.370;2022-11-18T08:23:03;69.03;;;23.17;;
36931;SDS011;22847;42.654;23.370;2022-11-18T08:25:28;86.32;;;22.50;;
36931;SDS011;22847;42.654;23.370;2022-11-18T08:27:54;61.30;;;24.63;;
36931;SDS011;22847;42.654;23.370;2022-11-18T08:30:19;66.05;;;24.23;;
36931;SDS011;22847;42.654;23.370;2022-11-18T08:32:44;64.32;;;24.67;;
36931;SDS011;22847;42.654;23.370;2022-11-18T08:35:10;62.85;;;25.50;;
36931;SDS011;22847;42.654;23.370;2022-11-18T08:37:35;68.82;;;26.77;;
36931;SDS011;22847;42.654;23.370;2022-11-18T08:40:01;67.05;;;26.00;;
36931;SDS011;22847;42.654;23.370;2022-11-18T08:42:27;69.03;;;27.92;;
36931;SDS011;22847;42.654;23.370;2022-11-18T08:44:52;56.55;;;25.20;;
36931;SDS011;22847;42.654;23.370;2022-11-18T08:47:17;62.60;;;26.52;;
36931;SDS011;22847;42.654;23.370;2022-11-18T08:49:43;74.82;;;30.67;;
36931;SDS011;22847;42.654;23.370;2022-11-18T08:52:08;61.13;;;26.90;;
36931;SDS011;22847;42.654;23.370;2022-11-18T08:54:33;62.63;;;27.52;;
36931;SDS011;22847;42.654;23.370;2022-11-18T08:56:59;42.95;;;19.95;;
36931;SDS011;22847;42.654;23.370;2022-11-18T08:59:25;56.05;;;24.08;;
36931;SDS011;22847;42.654;23.370;2022-11-18T09:01:50;53.78;;;24.80;;
36931;SDS011;22847;42.654;23.370;2022-11-18T09:04:16;62.75;;;28.73;;
36931;SDS011;22847;42.654;23.370;2022-11-18T09:06:41;73.32;;;29.55;;
36931;SDS011;22847;42.654;23.370;2022-11-18T09:09:07;68.57;;;29.85;;
36931;SDS011;22847;42.654;23.370;2022-11-18T09:11:33;73.50;;;29.25;;
36931;SDS011;22847;42.654;23.370;2022-11-18T09:13:59;79.60;;;32.10;;
36931;SDS011;22847;42.654;23.370;2022-11-18T09:16:26;78.60;;;32.15;;
36931;SDS011;22847;42.654;23.370;2022-11-18T09:18:54;78.75;;;31.92;;
36931;SDS011;22847;42.654;23.370;2022-11-18T09:21:20;76.60;;;30.92;;
36931;SDS011;22847;42.654;23.370;2022-11-18T09:23:46;95.38;;;32.92;;
36931;SDS011;22847;42.654;23.370;2022-11-18T09:26:13;84.75;;;34.22;;
36931;SDS011;22847;42.654;23.370;2022-11-18T09:28:40;85.63;;;34.47;;
36931;SDS011;22847;42.654;23.370;2022-11-18T09:31:10;85.80;;;35.65;;
36931;SDS011;22847;42.654;23.370;2022-11-18T09:33:37;85.38;;;35.58;;
36931;SDS011;22847;42.654;23.370;2022-11-18T09:36:03;89.57;;;34.97;;
36931;SDS011;22847;42.654;23.370;2022-11-18T09:38:30;96.57;;;35.80;;
36931;SDS011;22847;42.654;23.370;2022-11-18T09:41:15;89.68;;;34.63;;
36931;SDS011;22847;42.654;23.370;2022-11-18T09:49:28;85.93;;;34.75;;
36931;SDS011;22847;42.654;23.370;2022-11-18T09:51:55;92.47;;;34.22;;
36931;SDS011;22847;42.654;23.370;2022-11-18T09:54:26;90.75;;;36.50;;
36931;SDS011;22847;42.654;23.370;2022-11-18T09:56:55;85.05;;;34.38;;
36931;SDS011;22847;42.654;23.370;2022-11-18T09:59:24;82.68;;;33.75;;
36931;SDS011;22847;42.654;23.370;2022-11-18T10:02:18;69.32;;;31.70;;
36931;SDS011;22847;42.654;23.370;2022-11-18T10:05:06;68.95;;;31.52;;
36931;SDS011;22847;42.654;23.370;2022-11-18T10:07:46;64.70;;;29.80;;
36931;SDS011;22847;42.654;23.370;2022-11-18T10:13:53;59.45;;;29.50;;
36931;SDS011;22847;42.654;23.370;2022-11-18T10:19:24;48.22;;;22.65;;
36931;SDS011;22847;42.654;23.370;2022-11-18T10:24:23;60.83;;;27.83;;
36931;SDS011;22847;42.654;23.370;2022-11-18T10:26:55;54.25;;;25.25;;
36931;SDS011;22847;42.654;23.370;2022-11-18T10:29:22;65.80;;;29.52;;
36931;SDS011;22847;42.654;23.370;2022-11-18T10:32:01;61.63;;;29.90;;
36931;SDS011;22847;42.654;23.370;2022-11-18T10:34:33;70.28;;;28.88;;
36931;SDS011;22847;42.654;23.370;2022-11-18T10:37:20;73.32;;;30.15;;
36931;SDS011;22847;42.654;23.370;2022-11-18T10:39:58;62.47;;;30.23;;
36931;SDS011;22847;42.654;23.370;2022-11-18T10:42:34;66.75;;;31.63;;
36931;SDS011;22847;42.654;23.370;2022-11-18T10:47:55;67.43;;;30.90;;
36931;SDS011;22847;42.654;23.370;2022-11-18T10:50:28;66.90;;;29.83;;
36931;SDS011;22847;42.654;23.370;2022-11-18T10:52:56;81.55;;;35.38;;
36931;SDS011;22847;42.654;23.370;2022-11-18T10:55:23;67.10;;;33.15;;
36931;SDS011;22847;42.654;23.370;2022-11-18T10:57:52;72.18;;;32.53;;
36931;SDS011;22847;42.654;23.370;2022-11-18T11:08:47;79.18;;;33.75;;
36931;SDS011;22847;42.654;23.370;2022-11-18T11:14:03;91.45;;;36.55;;
36931;SDS011;22847;42.654;23.370;2022-11-18T11:16:46;82.60;;;35.13;;
36931;SDS011;22847;42.654;23.370;2022-11-18T11:19:21;83.68;;;37.17;;
36931;SDS011;22847;42.654;23.370;2022-11-18T11:21:49;85.88;;;34.05;;
36931;SDS011;22847;42.654;23.370;2022-11-18T11:24:15;74.15;;;32.70;;
36931;SDS011;22847;42.654;23.370;2022-11-18T11:26:56;84.30;;;35.95;;
36931;SDS011;22847;42.654;23.370;2022-11-18T11:35:11;97.75;;;40.10;;
36931;SDS011;22847;42.654;23.370;2022-11-18T11:37:58;83.40;;;33.65;;
36931;SDS011;22847;42.654;23.370;2022-11-18T11:40:31;88.68;;;35.22;;
36931;SDS011;22847;42.654;23.370;2022-11-18T11:46:22;83.75;;;34.22;;
36931;SDS011;22847;42.654;23.370;2022-11-18T11:59:16;74.63;;;30.85;;
36931;SDS011;22847;42.654;23.370;2022-11-18T12:04:27;71.68;;;34.20;;
36931;SDS011;22847;42.654;23.370;2022-11-18T12:06:56;74.60;;;34.58;;
36931;SDS011;22847;42.654;23.370;2022-11-18T12:11:54;70.28;;;33.45;;
36931;SDS011;22847;42.654;23.370;2022-11-18T12:14:45;62.28;;;27.02;;
36931;SDS011;22847;42.654;23.370;2022-11-18T12:17:21;58.13;;;27.15;;
36931;SDS011;22847;42.654;23.370;2022-11-18T12:19:57;63.47;;;25.48;;
36931;SDS011;22847;42.654;23.370;2022-11-18T12:22:22;48.13;;;23.10;;
36931;SDS011;22847;42.654;23.370;2022-11-18T12:28:21;49.33;;;22.35;;
36931;SDS011;22847;42.654;23.370;2022-11-18T12:33:55;39.78;;;20.67;;
36931;SDS011;22847;42.654;23.370;2022-11-18T12:36:24;44.53;;;21.20;;
36931;SDS011;22847;42.654;23.370;2022-11-18T12:38:51;46.67;;;20.50;;
36931;SDS011;22847;42.654;23.370;2022-11-18T12:44:24;40.92;;;19.38;;
36931;SDS011;22847;42.654;23.370;2022-11-18T12:46:55;45.53;;;20.27;;
36931;SDS011;22847;42.654;23.370;2022-11-18T12:51:48;41.38;;;20.35;;
36931;SDS011;22847;42.654;23.370;2022-11-18T12:54:21;39.55;;;20.88;;
36931;SDS011;22847;42.654;23.370;2022-11-18T12:56:52;51.20;;;21.27;;
36931;SDS011;22847;42.654;23.370;2022-11-18T12:59:30;39.50;;;20.75;;
36931;SDS011;22847;42.654;23.370;2022-11-18T13:04:35;34.78;;;17.02;;
36931;SDS011;22847;42.654;23.370;2022-11-18T13:07:01;28.17;;;15.65;;
36931;SDS011;22847;42.654;23.370;2022-11-18T13:09:32;32.63;;;16.15;;
36931;SDS011;22847;42.654;23.370;2022-11-18T13:12:03;29.63;;;14.73;;
36931;SDS011;22847;42.654;23.370;2022-11-18T13:14:33;29.55;;;15.82;;
36931;SDS011;22847;42.654;23.370;2022-11-18T13:17:42;27.67;;;13.60;;
36931;SDS011;22847;42.654;23.370;2022-11-18T13:23:01;24.88;;;11.07;;
36931;SDS011;22847;42.654;23.370;2022-11-18T13:26:03;17.60;;;8.00;;
36931;SDS011;22847;42.654;23.370;2022-11-18T13:28:45;22.77;;;6.90;;
36931;SDS011;22847;42.654;23.370;2022-11-18T13:31:28;15.35;;;8.60;;
36931;SDS011;22847;42.654;23.370;2022-11-18T13:34:16;25.88;;;10.68;;
36931;SDS011;22847;42.654;23.370;2022-11-18T13:36:44;19.63;;;9.80;;
36931;SDS011;22847;42.654;23.370;2022-11-18T13:39:16;20.20;;;9.88;;
36931;SDS011;22847;42.654;23.370;2022-11-18T13:41:46;16.23;;;7.80;;
36931;SDS011;22847;42.654;23.370;2022-11-18T13:44:34;24.98;;;8.52;;
36931;SDS011;22847;42.654;23.370;2022-11-18T13:47:03;20.88;;;9.05;;
36931;SDS011;22847;42.654;23.370;2022-11-18T13:49:50;12.43;;;6.22;;
36931;SDS011;22847;42.654;23.370;2022-11-18T13:52:29;15.13;;;6.55;;
36931;SDS011;22847;42.654;23.370;2022-11-18T13:55:05;25.98;;;7.03;;
36931;SDS011;22847;42.654;23.370;2022-11-18T13:57:45;4.05;;;2.60;;
36931;SDS011;22847;42.654;23.370;2022-11-18T14:00:21;6.80;;;2.17;;
36931;SDS011;22847;42.654;23.370;2022-11-18T14:02:52;5.43;;;2.35;;
36931;SDS011;22847;42.654;23.370;2022-11-18T14:05:22;5.38;;;1.80;;
36931;SDS011;22847;42.654;23.370;2022-11-18T14:07:55;8.20;;;2.00;;
36931;SDS011;22847;42.654;23.370;2022-11-18T14:10:38;1.80;;;1.38;;
36931;SDS011;22847;42.654;23.370;2022-11-18T14:13:16;6.47;;;1.90;;
36931;SDS011;22847;42.654;23.370;2022-11-18T14:15:44;2.03;;;1.40;;
36931;SDS011;22847;42.654;23.370;2022-11-18T14:18:15;4.03;;;1.95;;
36931;SDS011;22847;42.654;23.370;2022-11-18T14:20:51;5.65;;;1.63;;
36931;SDS011;22847;42.654;23.370;2022-11-18T14:23:19;4.63;;;1.33;;
36931;SDS011;22847;42.654;23.370;2022-11-18T14:25:50;3.30;;;1.45;;
36931;SDS011;22847;42.654;23.370;2022-11-18T14:28:19;5.85;;;1.35;;
36931;SDS011;22847;42.654;23.370;2022-11-18T14:31:18;3.75;;;1.33;;
36931;SDS011;22847;42.654;23.370;2022-11-18T14:36:49;4.45;;;1.40;;
36931;SDS011;22847;42.654;23.370;2022-11-18T14:39:21;8.00;;;1.80;;
36931;SDS011;22847;42.654;23.370;2022-11-18T14:41:51;5.88;;;1.80;;
36931;SDS011;22847;42.654;23.370;2022-11-18T14:44:17;22.65;;;12.77;;
36931;SDS011;22847;42.654;23.370;2022-11-18T14:46:48;5.95;;;1.58;;
36931;SDS011;22847;42.654;23.370;2022-11-18T14:49:18;5.68;;;2.15;;
36931;SDS011;22847;42.654;23.370;2022-11-18T14:51:46;4.43;;;2.05;;
36931;SDS011;22847;42.654;23.370;2022-11-18T14:54:15;6.65;;;2.15;;
36931;SDS011;22847;42.654;23.370;2022-11-18T14:56:42;3.08;;;1.60;;
36931;SDS011;22847;42.654;23.370;2022-11-18T14:59:10;3.67;;;1.65;;
36931;SDS011;22847;42.654;23.370;2022-11-18T15:01:39;4.43;;;2.00;;
36931;SDS011;22847;42.654;23.370;2022-11-18T15:04:06;2.08;;;1.52;;
36931;SDS011;22847;42.654;23.370;2022-11-18T15:06:32;4.30;;;1.40;;
36931;SDS011;22847;42.654;23.370;2022-11-18T15:08:57;4.07;;;1.90;;
36931;SDS011;22847;42.654;23.370;2022-11-18T15:11:23;3.55;;;1.83;;
36931;SDS011;22847;42.654;23.370;2022-11-18T15:13:48;3.97;;;1.70;;
36931;SDS011;22847;42.654;23.370;2022-11-18T15:16:15;3.17;;;1.48;;
36931;SDS011;22847;42.654;23.370;2022-11-18T15:18:43;3.53;;;1.58;;
36931;SDS011;22847;42.654;23.370;2022-11-18T15:21:11;2.95;;;1.65;;
36931;SDS011;22847;42.654;23.370;2022-11-18T15:23:36;4.80;;;1.55;;
36931;SDS011;22847;42.654;23.370;2022-11-18T15:26:02;5.10;;;1.58;;
36931;SDS011;22847;42.654;23.370;2022-11-18T15:28:43;4.85;;;2.13;;
36931;SDS011;22847;42.654;23.370;2022-11-18T15:31:10;8.77;;;5.35;;
36931;SDS011;22847;42.654;23.370;2022-11-18T15:33:35;5.45;;;3.20;;
36931;SDS011;22847;42.654;23.370;2022-11-18T15:36:11;7.60;;;3.92;;
36931;SDS011;22847;42.654;23.370;2022-11-18T15:38:38;5.75;;;2.53;;
36931;SDS011;22847;42.654;23.370;2022-11-18T15:41:03;9.88;;;5.90;;
36931;SDS011;22847;42.654;23.370;2022-11-18T15:43:29;4.55;;;1.63;;
36931;SDS011;22847;42.654;23.370;2022-11-18T15:45:55;4.88;;;1.88;;
36931;SDS011;22847;42.654;23.370;2022-11-18T15:48:22;4.28;;;1.92;;
36931;SDS011;22847;42.654;23.370;2022-11-18T15:50:47;15.27;;;8.73;;
36931;SDS011;22847;42.654;23.370;2022-11-18T15:53:13;12.07;;;3.60;;
36931;SDS011;22847;42.654;23.370;2022-11-18T15:55:38;5.90;;;2.42;;
36931;SDS011;22847;42.654;23.370;2022-11-18T15:58:04;4.50;;;2.50;;
36931;SDS011;22847;42.654;23.370;2022-11-18T16:00:29;6.18;;;2.20;;
36931;SDS011;22847;42.654;23.370;2022-11-18T16:02:55;5.75;;;2.90;;
36931;SDS011;22847;42.654;23.370;2022-11-18T16:05:20;7.95;;;3.17;;
36931;SDS011;22847;42.654;23.370;2022-11-18T16:07:45;5.18;;;2.75;;
36931;SDS011;22847;42.654;23.370;2022-11-18T16:10:12;7.40;;;2.95;;
36931;SDS011;22847;42.654;23.370;2022-11-18T16:12:56;9.15;;;4.70;;
36931;SDS011;22847;42.654;23.370;2022-11-18T16:15:21;11.60;;;5.45;;